createdAt,value
2019-04-05T00:01:30.219Z,8.17
2019-04-05T00:03:56.158Z,8.21
2019-04-05T00:06:22.272Z,8.25
2019-04-05T00:08:50.143Z,8.25
2019-04-05T00:11:15.982Z,8.16
2019-04-05T00:13:41.695Z,8.16
2019-04-05T00:16:08.356Z,8.17
2019-04-05T00:18:34.086Z,8.26
2019-04-05T00:20:59.821Z,8.05
2019-04-05T00:23:25.589Z,8.03
2019-04-05T00:25:51.435Z,8.11
2019-04-05T00:28:18.174Z,8.02
2019-04-05T00:30:43.981Z,8.10
2019-04-05T00:33:09.735Z,8.16
2019-04-05T00:35:35.420Z,8.03
2019-04-05T00:38:01.264Z,8.00
2019-04-05T00:40:27.059Z,7.91
2019-04-05T00:42:52.832Z,7.94
2019-04-05T00:45:27.983Z,8.02
2019-04-05T00:47:46.508Z,8.07
2019-04-05T00:50:12.476Z,8.06
2019-04-05T00:52:38.318Z,7.81
2019-04-05T00:55:04.832Z,7.86
2019-04-05T00:57:30.500Z,7.94
2019-04-05T00:59:56.465Z,7.79
2019-04-05T01:02:22.185Z,7.87
2019-04-05T01:04:47.952Z,7.83
2019-04-05T01:07:13.766Z,8.10
2019-04-05T01:09:39.581Z,8.03
2019-04-05T01:12:05.518Z,7.95
2019-04-05T01:14:31.338Z,8.16
2019-04-05T01:16:57.139Z,8.00
2019-04-05T01:19:24.887Z,7.97
2019-04-05T01:21:52.562Z,8.04
2019-04-05T01:24:18.725Z,8.04
2019-04-05T01:26:45.298Z,7.87
2019-04-05T01:29:11.451Z,7.99
2019-04-05T01:31:37.189Z,7.95
2019-04-05T01:34:05.383Z,7.74
2019-04-05T01:36:30.811Z,7.72
2019-04-05T01:38:56.707Z,7.79
2019-04-05T01:41:22.508Z,7.89
2019-04-05T01:43:48.512Z,7.95
2019-04-05T01:46:14.184Z,7.95
2019-04-05T01:48:40.166Z,7.81
2019-04-05T01:51:06.125Z,7.88
2019-04-05T01:53:31.941Z,7.87
2019-04-05T01:55:57.749Z,8.01
2019-04-05T01:58:23.647Z,7.98
2019-04-05T02:00:49.450Z,7.86
2019-04-05T02:03:15.209Z,7.76
2019-04-05T02:05:41.325Z,7.89
2019-04-05T02:08:07.119Z,7.89
2019-04-05T02:10:32.923Z,7.88
2019-04-05T02:12:58.727Z,7.89
2019-04-05T02:15:25.663Z,7.87
2019-04-05T02:17:51.470Z,7.96
2019-04-05T02:20:17.369Z,7.95
2019-04-05T02:22:43.196Z,7.91
2019-04-05T02:25:08.991Z,7.87
2019-04-05T02:27:34.791Z,7.82
2019-04-05T02:30:01.846Z,7.86
2019-04-05T02:32:27.641Z,7.85
2019-04-05T02:34:53.425Z,7.82
2019-04-05T02:37:19.212Z,8.00
2019-04-05T02:39:44.909Z,8.06
2019-04-05T02:42:11.132Z,8.02
2019-04-05T02:44:37.761Z,7.97
2019-04-05T02:47:04.443Z,7.90
2019-04-05T02:49:31.162Z,7.86
2019-04-05T02:51:58.787Z,7.84
2019-04-05T02:54:24.937Z,7.77
2019-04-05T02:56:51.108Z,7.70
2019-04-05T02:59:17.625Z,7.68
2019-04-05T03:01:43.822Z,7.77
2019-04-05T03:04:09.622Z,7.82
2019-04-05T03:06:35.654Z,7.83
2019-04-05T03:09:03.839Z,7.95
2019-04-05T03:11:31.238Z,7.89
2019-04-05T03:13:58.883Z,7.98
2019-04-05T03:16:39.607Z,7.96
2019-04-05T03:18:56.022Z,8.00
2019-04-05T03:21:23.333Z,7.93
2019-04-05T03:23:50.217Z,7.83
2019-04-05T03:26:17.511Z,7.84
2019-04-05T03:28:45.143Z,7.87
2019-04-05T03:31:11.257Z,7.88
2019-04-05T03:33:37.087Z,7.81
2019-04-05T03:36:03.056Z,7.86
2019-04-05T03:38:28.953Z,7.79
2019-04-05T03:40:54.744Z,7.84
2019-04-05T03:43:20.591Z,7.86
2019-04-05T03:45:46.410Z,7.75
2019-04-05T03:48:14.232Z,7.79
2019-04-05T03:50:40.135Z,7.83
2019-04-05T03:53:06.312Z,7.81
2019-04-05T03:55:32.146Z,7.85
2019-04-05T03:57:58.026Z,7.78
2019-04-05T04:00:23.899Z,7.76
2019-04-05T04:02:49.847Z,7.68
2019-04-05T04:05:15.793Z,7.68
2019-04-05T04:07:41.664Z,7.64
2019-04-05T04:10:09.436Z,7.57
2019-04-05T04:12:35.218Z,7.54
2019-04-05T04:15:14.005Z,7.61
2019-04-05T04:17:42.229Z,7.54
2019-04-05T04:20:09.928Z,7.62
2019-04-05T04:22:35.769Z,7.66
2019-04-05T04:25:01.716Z,7.76
2019-04-05T04:27:28.331Z,7.71
2019-04-05T04:29:54.548Z,7.81
2019-04-05T04:32:20.281Z,7.88
2019-04-05T04:34:46.340Z,7.93
2019-04-05T04:37:12.131Z,7.94
2019-04-05T04:39:38.211Z,7.89
2019-04-05T04:42:04.061Z,7.93
2019-04-05T04:44:29.923Z,7.77
2019-04-05T04:46:55.918Z,7.77
2019-04-05T04:49:21.820Z,7.70
2019-04-05T04:51:48.327Z,7.75
2019-04-05T04:54:14.177Z,7.79
2019-04-05T04:56:43.486Z,7.90
2019-04-05T04:59:09.195Z,7.75
2019-04-05T05:01:35.262Z,7.68
2019-04-05T05:04:01.353Z,7.54
2019-04-05T05:06:27.342Z,7.64
2019-04-05T05:08:53.380Z,7.71
2019-04-05T05:11:19.198Z,7.91
2019-04-05T05:13:44.997Z,7.69
2019-04-05T05:16:10.894Z,7.77
2019-04-05T05:18:37.440Z,7.83
2019-04-05T05:21:03.553Z,7.77
2019-04-05T05:23:29.440Z,7.81
2019-04-05T05:25:55.227Z,7.88
2019-04-05T05:28:21.104Z,7.81
2019-04-05T05:30:47.071Z,7.84
2019-04-05T05:33:14.543Z,7.97
2019-04-05T05:35:40.447Z,7.86
2019-04-05T05:38:06.331Z,7.97
2019-04-05T05:40:35.146Z,8.10
2019-04-05T05:42:59.852Z,8.02
2019-04-05T05:45:25.695Z,8.18
2019-04-05T05:47:52.587Z,8.25
2019-04-05T05:50:18.530Z,8.05
2019-04-05T05:52:44.497Z,7.93
2019-04-05T05:55:10.287Z,7.74
2019-04-05T05:57:36.078Z,7.71
2019-04-05T06:00:03.209Z,7.69
2019-04-05T06:02:29.060Z,7.82
2019-04-05T06:04:55.232Z,7.78
2019-04-05T06:07:20.928Z,7.93
2019-04-05T06:09:47.771Z,8.16
2019-04-05T06:12:13.659Z,8.25
2019-04-05T06:14:39.570Z,8.48
2019-04-05T06:17:05.354Z,8.51
2019-04-05T06:19:31.128Z,8.67
2019-04-05T06:21:56.822Z,8.85
2019-04-05T06:24:23.027Z,8.88
2019-04-05T06:26:48.763Z,8.91
2019-04-05T06:29:14.539Z,8.85
2019-04-05T06:31:40.439Z,8.85
2019-04-05T06:34:06.131Z,9.08
2019-04-05T06:36:31.835Z,9.14
2019-04-05T06:38:57.548Z,9.05
2019-04-05T06:41:23.330Z,8.96
2019-04-05T06:43:48.999Z,9.13
2019-04-05T06:46:14.730Z,8.97
2019-04-05T06:48:40.495Z,9.17
2019-04-05T06:51:06.320Z,9.41
2019-04-05T06:53:32.063Z,9.43
2019-04-05T06:55:59.791Z,9.47
2019-04-05T06:58:28.887Z,9.44
2019-04-05T07:00:57.178Z,9.61
2019-04-05T07:03:20.721Z,9.60
2019-04-05T07:05:46.609Z,9.71
2019-04-05T07:08:12.368Z,9.59
2019-04-05T07:10:38.176Z,9.80
2019-04-05T07:13:04.583Z,9.89
2019-04-05T07:15:30.591Z,9.90
2019-04-05T07:17:56.280Z,9.94
2019-04-05T07:20:23.784Z,9.72
2019-04-05T07:22:49.735Z,9.38
2019-04-05T07:25:15.422Z,9.49
2019-04-05T07:27:41.378Z,9.62
2019-04-05T07:30:07.194Z,9.82
2019-04-05T07:32:33.004Z,9.88
2019-04-05T07:34:59.641Z,9.45
2019-04-05T07:37:25.419Z,9.46
2019-04-05T07:39:51.126Z,9.05
2019-04-05T07:42:16.832Z,9.17
2019-04-05T07:44:42.518Z,9.08
2019-04-05T07:47:08.219Z,8.98
2019-04-05T07:49:33.910Z,9.12
2019-04-05T07:51:59.747Z,9.29
2019-04-05T07:54:25.444Z,9.17
2019-04-05T07:56:51.209Z,8.98
2019-04-05T07:59:17.043Z,9.42
2019-04-05T08:01:42.948Z,9.37
2019-04-05T08:04:08.669Z,9.22
2019-04-05T08:06:36.050Z,9.38
2019-04-05T08:09:06.757Z,9.77
2019-04-05T08:11:32.623Z,9.68
2019-04-05T08:14:00.307Z,9.62
2019-04-05T08:16:26.390Z,9.67
2019-04-05T08:18:57.904Z,9.54
2019-04-05T08:21:19.671Z,9.48
2019-04-05T08:23:45.534Z,9.21
2019-04-05T08:26:11.253Z,9.42
2019-04-05T08:28:37.029Z,9.76
2019-04-05T08:31:02.838Z,9.58
2019-04-05T08:33:28.546Z,9.73
2019-04-05T08:35:54.816Z,9.98
2019-04-05T08:38:20.522Z,10.01
2019-04-05T08:40:46.320Z,10.08
2019-04-05T08:43:12.140Z,10.19
2019-04-05T08:45:37.836Z,10.18
2019-04-05T08:48:03.647Z,10.12
2019-04-05T08:50:29.480Z,10.21
2019-04-05T08:52:55.332Z,9.81
2019-04-05T08:55:21.230Z,10.02
2019-04-05T08:57:48.206Z,9.69
2019-04-05T09:00:14.262Z,9.89
2019-04-05T09:02:39.985Z,10.33
2019-04-05T09:05:06.163Z,10.50
2019-04-05T09:07:31.990Z,10.01
2019-04-05T09:09:57.797Z,10.28
2019-04-05T09:12:23.643Z,10.79
2019-04-05T09:14:49.353Z,11.12
2019-04-05T09:17:15.040Z,11.75
2019-04-05T09:19:40.802Z,11.65
2019-04-05T09:22:06.541Z,12.17
2019-04-05T09:24:32.458Z,12.40
2019-04-05T09:26:58.131Z,12.25
2019-04-05T09:29:23.922Z,11.93
2019-04-05T09:31:49.678Z,11.42
2019-04-05T09:34:15.580Z,11.21
2019-04-05T09:36:41.504Z,11.67
2019-04-05T09:39:13.657Z,12.21
2019-04-05T09:41:37.209Z,12.17
2019-04-05T09:44:03.133Z,11.85
2019-04-05T09:46:28.811Z,12.38
2019-04-05T09:48:54.484Z,12.68
2019-04-05T09:51:20.316Z,12.67
2019-04-05T09:53:46.147Z,12.09
2019-04-05T09:56:12.105Z,12.80
2019-04-05T09:58:37.902Z,12.51
2019-04-05T10:01:03.829Z,13.22
2019-04-05T10:03:29.751Z,13.08
2019-04-05T10:05:55.501Z,12.96
2019-04-05T10:08:21.284Z,13.18
2019-04-05T10:10:47.208Z,13.19
2019-04-05T10:13:12.964Z,13.29
2019-04-05T10:15:38.691Z,13.58
2019-04-05T10:18:04.580Z,13.19
2019-04-05T10:20:30.393Z,12.94
2019-04-05T10:22:56.266Z,13.41
2019-04-05T10:25:21.985Z,13.73
2019-04-05T10:27:47.713Z,14.16
2019-04-05T10:30:13.942Z,14.11
2019-04-05T10:32:39.786Z,14.57
2019-04-05T10:35:06.426Z,14.79
2019-04-05T10:37:32.352Z,14.24
2019-04-05T10:39:58.086Z,15.27
2019-04-05T10:42:30.924Z,14.80
2019-04-05T10:44:56.777Z,14.47
2019-04-05T10:47:22.566Z,14.54
2019-04-05T10:49:48.426Z,14.13
2019-04-05T10:52:14.191Z,14.20
2019-04-05T10:54:40.113Z,14.44
2019-04-05T10:57:06.055Z,14.44
2019-04-05T10:59:31.785Z,15.00
2019-04-05T11:01:57.570Z,14.35
2019-04-05T11:04:23.383Z,14.08
2019-04-05T11:06:49.167Z,13.84
2019-04-05T11:09:14.950Z,13.98
2019-04-05T11:11:40.634Z,14.55
2019-04-05T11:14:13.630Z,14.04
2019-04-05T11:16:34.093Z,14.34
2019-04-05T11:19:01.934Z,13.81
2019-04-05T11:21:27.502Z,14.15
2019-04-05T11:23:53.553Z,14.17
2019-04-05T11:26:20.792Z,14.25
2019-04-05T11:28:46.609Z,13.99
2019-04-05T11:31:12.520Z,13.95
2019-04-05T11:33:38.345Z,14.02
2019-04-05T11:36:04.010Z,14.19
2019-04-05T11:38:30.094Z,14.38
2019-04-05T11:40:56.187Z,14.87
2019-04-05T11:43:26.148Z,15.20
2019-04-05T11:45:53.852Z,14.99
2019-04-05T11:48:19.510Z,15.35
2019-04-05T11:50:45.206Z,15.35
2019-04-05T11:53:11.046Z,15.68
2019-04-05T11:55:36.707Z,14.88
2019-04-05T11:58:02.484Z,14.75
2019-04-05T12:00:30.175Z,14.68
2019-04-05T12:02:57.796Z,14.67
2019-04-05T12:05:26.913Z,15.50
2019-04-05T12:07:51.209Z,15.43
2019-04-05T12:10:19.425Z,15.28
2019-04-05T12:12:44.540Z,15.42
2019-04-05T12:15:10.357Z,15.07
2019-04-05T12:17:36.220Z,16.19
2019-04-05T12:20:03.578Z,15.94
2019-04-05T12:22:29.396Z,16.03
2019-04-05T12:24:55.225Z,16.35
2019-04-05T12:27:21.078Z,16.39
2019-04-05T12:29:46.906Z,16.14
2019-04-05T12:32:15.637Z,15.53
2019-04-05T12:34:40.765Z,15.16
2019-04-05T12:37:06.613Z,14.75
2019-04-05T12:39:32.478Z,15.34
2019-04-05T12:41:58.165Z,14.88
2019-04-05T12:44:23.944Z,14.80
2019-04-05T12:46:49.874Z,15.41
2019-04-05T12:49:15.820Z,15.38
2019-04-05T12:51:43.416Z,14.41
2019-04-05T12:54:09.324Z,14.99
2019-04-05T12:56:35.045Z,14.70
2019-04-05T12:59:02.128Z,14.23
2019-04-05T13:01:28.256Z,14.39
2019-04-05T13:03:54.237Z,15.07
2019-04-05T13:06:21.769Z,14.90
2019-04-05T13:08:47.595Z,15.06
2019-04-05T13:11:13.360Z,15.42
2019-04-05T13:13:39.189Z,15.21
2019-04-05T13:16:05.009Z,15.67
2019-04-05T13:18:31.753Z,15.36
2019-04-05T13:20:58.259Z,15.49
2019-04-05T13:23:25.389Z,15.37
2019-04-05T13:25:51.312Z,15.79
2019-04-05T13:28:18.950Z,16.04
2019-04-05T13:30:48.172Z,15.88
2019-04-05T13:33:12.476Z,15.34
2019-04-05T13:35:38.262Z,15.71
2019-04-05T13:38:04.086Z,15.48
2019-04-05T13:40:30.208Z,15.68
2019-04-05T13:42:56.015Z,15.61
2019-04-05T13:45:21.914Z,15.56
2019-04-05T13:47:47.734Z,15.73
2019-04-05T13:50:13.647Z,16.07
2019-04-05T13:52:42.124Z,16.85
2019-04-05T13:55:10.513Z,16.15
2019-04-05T13:57:34.916Z,15.56
2019-04-05T14:00:02.095Z,15.64
2019-04-05T14:02:28.022Z,15.61
2019-04-05T14:04:54.392Z,15.42
2019-04-05T14:07:23.454Z,15.70
2019-04-05T14:09:48.033Z,16.26
2019-04-05T14:12:13.787Z,15.76
2019-04-05T14:14:41.600Z,15.31
2019-04-05T14:17:07.321Z,15.60
2019-04-05T14:19:33.351Z,16.07
2019-04-05T14:22:08.374Z,15.87
2019-04-05T14:24:26.762Z,17.51
2019-04-05T14:26:52.534Z,16.81
2019-04-05T14:29:18.423Z,16.59
2019-04-05T14:31:44.374Z,16.66
2019-04-05T14:34:10.288Z,16.66
2019-04-05T14:36:36.148Z,16.81
2019-04-05T14:39:01.996Z,16.32
2019-04-05T14:41:27.839Z,16.10
2019-04-05T14:43:53.663Z,16.61
2019-04-05T14:46:19.571Z,16.51
2019-04-05T14:48:45.421Z,16.79
2019-04-05T14:51:11.402Z,15.81
2019-04-05T14:53:37.090Z,15.62
2019-04-05T14:56:03.239Z,15.61
2019-04-05T14:58:29.105Z,15.67
2019-04-05T15:00:54.823Z,15.36
2019-04-05T15:03:20.658Z,15.57
2019-04-05T15:05:46.731Z,15.46
2019-04-05T15:08:12.702Z,15.37
2019-04-05T15:10:38.481Z,14.96
2019-04-05T15:13:04.376Z,15.16
2019-04-05T15:15:30.390Z,15.63
2019-04-05T15:17:56.117Z,15.31
2019-04-05T15:20:22.085Z,15.16
2019-04-05T15:22:47.861Z,15.34
2019-04-05T15:25:16.592Z,15.25
2019-04-05T15:27:41.329Z,15.09
2019-04-05T15:30:07.276Z,15.49
2019-04-05T15:32:33.772Z,15.24
2019-04-05T15:34:59.519Z,15.19
2019-04-05T15:37:25.194Z,14.80
2019-04-05T15:39:50.995Z,14.92
2019-04-05T15:42:16.743Z,15.13
2019-04-05T15:44:42.558Z,14.64
2019-04-05T15:47:08.414Z,14.81
2019-04-05T15:49:34.299Z,14.73
2019-04-05T15:52:00.033Z,14.89
2019-04-05T15:54:28.816Z,14.87
2019-04-05T15:56:53.446Z,14.42
2019-04-05T15:59:21.753Z,14.67
2019-04-05T16:01:46.966Z,15.11
2019-04-05T16:04:12.767Z,15.00
2019-04-05T16:06:39.221Z,15.11
2019-04-05T16:09:05.988Z,15.15
2019-04-05T16:11:31.891Z,15.51
2019-04-05T16:13:57.567Z,15.63
2019-04-05T16:16:23.317Z,14.97
2019-04-05T16:18:49.025Z,15.28
2019-04-05T16:21:14.848Z,15.30
2019-04-05T16:23:40.622Z,15.22
2019-04-05T16:26:06.416Z,15.12
2019-04-05T16:28:32.210Z,14.99
2019-04-05T16:30:58.033Z,15.21
2019-04-05T16:33:23.842Z,15.23
2019-04-05T16:35:49.578Z,15.18
2019-04-05T16:38:15.260Z,15.24
2019-04-05T16:40:41.149Z,15.19
2019-04-05T16:43:07.327Z,14.97
2019-04-05T16:45:34.751Z,14.95
2019-04-05T16:48:00.526Z,14.81
2019-04-05T16:50:26.383Z,14.80
2019-04-05T16:52:52.195Z,14.72
2019-04-05T16:55:18.029Z,14.66
2019-04-05T16:57:43.880Z,14.66
2019-04-05T17:00:11.288Z,14.59
2019-04-05T17:02:37.256Z,14.57
2019-04-05T17:05:04.145Z,14.23
2019-04-05T17:07:29.880Z,14.28
2019-04-05T17:09:55.920Z,14.38
2019-04-05T17:12:21.730Z,14.39
2019-04-05T17:14:47.510Z,14.39
2019-04-05T17:17:13.291Z,14.25
2019-04-05T17:19:39.076Z,14.16
2019-04-05T17:22:04.850Z,14.08
2019-04-05T17:24:30.847Z,13.94
2019-04-05T17:26:56.624Z,13.80
2019-04-05T17:29:22.657Z,13.83
2019-04-05T17:31:48.621Z,13.73
2019-04-05T17:34:14.488Z,13.80
2019-04-05T17:36:40.431Z,13.69
2019-04-05T17:39:06.354Z,13.66
2019-04-05T17:41:32.210Z,13.55
2019-04-05T17:44:00.489Z,13.52
2019-04-05T17:46:26.170Z,13.56
2019-04-05T17:48:52.054Z,13.50
2019-04-05T17:51:17.954Z,13.44
2019-04-05T17:53:43.779Z,13.40
2019-04-05T17:56:09.592Z,13.27
2019-04-05T17:58:35.430Z,13.22
2019-04-05T18:01:02.179Z,13.24
2019-04-05T18:03:28.005Z,13.19
2019-04-05T18:05:53.913Z,13.11
2019-04-05T18:08:20.933Z,13.00
2019-04-05T18:10:46.804Z,12.98
2019-04-05T18:13:12.516Z,12.95
2019-04-05T18:15:46.694Z,12.93
2019-04-05T18:18:05.971Z,12.89
2019-04-05T18:20:31.727Z,12.92
2019-04-05T18:22:57.521Z,12.86
2019-04-05T18:25:23.219Z,12.84
2019-04-05T18:27:49.119Z,12.92
2019-04-05T18:30:15.104Z,12.91
2019-04-05T18:32:41.030Z,12.81
2019-04-05T18:35:06.960Z,12.94
2019-04-05T18:37:35.120Z,12.92
2019-04-05T18:40:00.377Z,12.93
2019-04-05T18:42:26.149Z,12.94
2019-04-05T18:44:52.137Z,12.97
2019-04-05T18:47:18.149Z,12.99
2019-04-05T18:49:43.940Z,12.99
2019-04-05T18:52:09.844Z,13.02
2019-04-05T18:54:35.665Z,12.92
2019-04-05T18:57:01.496Z,12.92
2019-04-05T18:59:27.363Z,12.89
2019-04-05T19:01:53.230Z,12.82
2019-04-05T19:04:19.082Z,12.88
2019-04-05T19:06:45.011Z,12.88
2019-04-05T19:09:12.083Z,12.89
2019-04-05T19:11:38.055Z,12.80
2019-04-05T19:14:03.921Z,12.80
2019-04-05T19:16:29.758Z,12.84
2019-04-05T19:18:55.628Z,12.80
2019-04-05T19:21:21.647Z,12.82
2019-04-05T19:23:51.030Z,12.64
2019-04-05T19:26:15.239Z,12.70
2019-04-05T19:28:41.012Z,12.68
2019-04-05T19:50:49.805Z,12.60
2019-04-05T19:53:15.784Z,12.54
2019-04-05T19:55:41.697Z,12.55
2019-04-05T19:58:07.544Z,12.47
2019-04-05T20:00:33.478Z,12.42
2019-04-05T20:02:59.420Z,12.37
2019-04-05T20:05:25.373Z,12.36
2019-04-05T20:07:51.234Z,12.36
2019-04-05T20:10:17.231Z,12.34
2019-04-05T20:12:43.104Z,12.33
2019-04-05T20:15:08.918Z,12.28
2019-04-05T20:17:34.784Z,12.31
2019-04-05T20:20:00.738Z,12.30
2019-04-05T20:22:26.530Z,12.24
2019-04-05T20:24:52.358Z,12.28
2019-04-05T20:27:18.656Z,12.32
2019-04-05T20:29:44.542Z,12.28
2019-04-05T20:32:10.484Z,12.33
2019-04-05T20:34:36.283Z,12.33
2019-04-05T20:37:02.108Z,12.32
2019-04-05T20:39:31.312Z,12.28
2019-04-05T20:41:57.131Z,12.31
2019-04-05T20:44:22.973Z,12.37
2019-04-05T20:46:48.811Z,12.44
2019-04-05T20:49:15.924Z,12.39
2019-04-05T20:51:41.725Z,12.40
2019-04-05T20:54:07.564Z,12.30
2019-04-05T20:56:33.373Z,12.29
2019-04-05T20:58:59.288Z,12.38
2019-04-05T21:01:25.109Z,12.38
2019-04-05T21:03:51.063Z,12.38
2019-04-05T21:06:17.302Z,12.30
2019-04-05T21:08:45.080Z,12.24
2019-04-05T21:11:10.853Z,12.20
2019-04-05T21:13:40.114Z,12.14
2019-04-05T21:16:05.951Z,12.22
2019-04-05T21:18:31.790Z,12.27
2019-04-05T21:20:57.638Z,12.24
2019-04-05T21:23:23.449Z,12.15
2019-04-05T21:25:49.384Z,12.03
2019-04-05T21:28:15.199Z,12.03
2019-04-05T21:30:40.908Z,12.05
2019-04-05T21:33:06.649Z,12.00
2019-04-05T21:35:32.596Z,11.94
2019-04-05T21:37:58.421Z,11.94
2019-04-05T21:40:24.242Z,11.93
2019-04-05T21:42:50.379Z,11.95
2019-04-05T21:45:16.390Z,11.92
2019-04-05T21:47:44.141Z,12.00
2019-04-05T21:50:10.252Z,11.91
2019-04-05T21:52:36.249Z,11.91
2019-04-05T21:55:03.421Z,12.01
2019-04-05T21:57:29.274Z,11.95
2019-04-05T21:59:55.236Z,12.02
2019-04-05T22:02:21.234Z,11.92
2019-04-05T22:04:47.025Z,11.95
2019-04-05T22:07:13.012Z,11.91
2019-04-05T22:09:38.844Z,11.86
2019-04-05T22:12:04.714Z,11.85
2019-04-05T22:14:30.677Z,11.79
2019-04-05T22:16:56.494Z,11.86
2019-04-05T22:19:22.318Z,11.85
2019-04-05T22:21:48.202Z,11.85
2019-04-05T22:24:14.003Z,11.84
2019-04-05T22:26:39.687Z,11.78
2019-04-05T22:29:05.422Z,11.78
2019-04-05T22:31:31.150Z,11.70
2019-04-05T22:33:56.930Z,11.74
2019-04-05T22:36:22.673Z,11.68
2019-04-05T22:38:48.490Z,11.70
2019-04-05T22:41:14.326Z,11.72
2019-04-05T22:43:40.113Z,11.76
2019-04-05T22:46:05.870Z,11.78
2019-04-05T22:48:31.624Z,11.81
2019-04-05T22:50:57.327Z,11.82
2019-04-05T22:53:23.145Z,11.76
2019-04-05T22:55:48.855Z,11.75
2019-04-05T22:58:14.625Z,11.75
2019-04-05T23:00:40.404Z,11.71
2019-04-05T23:03:06.119Z,11.70
2019-04-05T23:05:31.933Z,11.64
2019-04-05T23:07:57.880Z,11.60
2019-04-05T23:10:23.628Z,11.61
2019-04-05T23:12:49.291Z,11.61
2019-04-05T23:15:15.153Z,11.64
2019-04-05T23:17:40.813Z,11.61
2019-04-05T23:20:06.602Z,11.62
2019-04-05T23:22:32.519Z,11.70
2019-04-05T23:24:58.291Z,11.64
2019-04-05T23:27:24.095Z,11.68
2019-04-05T23:29:49.840Z,11.60
2019-04-05T23:32:15.724Z,11.58
2019-04-05T23:34:41.544Z,11.47
2019-04-05T23:37:07.234Z,11.41
2019-04-05T23:39:32.920Z,11.40
2019-04-05T23:41:58.746Z,11.27
2019-04-05T23:44:24.464Z,11.26
2019-04-05T23:46:52.603Z,11.25
2019-04-05T23:49:17.925Z,11.15
2019-04-05T23:51:43.707Z,11.10
2019-04-05T23:54:09.431Z,11.22
2019-04-05T23:56:35.136Z,11.22
2019-04-05T23:59:01.056Z,11.30
